createdAt,value
2023-04-25T00:00:51.897Z,66.10
2023-04-25T00:03:24.961Z,66.00
2023-04-25T00:05:53.078Z,66.00
2023-04-25T00:08:20.649Z,65.90
2023-04-25T00:10:47.749Z,65.90
2023-04-25T00:13:15.954Z,66.10
2023-04-25T00:15:43.621Z,65.80
2023-04-25T00:18:11.028Z,65.80
2023-04-25T00:20:38.411Z,65.70
2023-04-25T00:23:06.557Z,65.70
2023-04-25T00:25:33.859Z,65.70
2023-04-25T00:28:01.162Z,65.70
2023-04-25T00:30:28.389Z,65.50
2023-04-25T00:32:55.796Z,65.50
2023-04-25T00:35:23.062Z,65.50
2023-04-25T00:37:50.298Z,65.50
2023-04-25T00:40:17.329Z,65.50
2023-04-25T00:42:45.548Z,65.40
2023-04-25T00:45:14.957Z,65.30
2023-04-25T00:47:46.001Z,65.40
2023-04-25T00:50:13.731Z,65.20
2023-04-25T00:52:43.057Z,65.30
2023-04-25T00:55:12.393Z,65.20
2023-04-25T00:57:40.746Z,65.20
2023-04-25T01:00:08.813Z,65.20
2023-04-25T01:02:37.461Z,65.00
2023-04-25T01:05:08.264Z,64.90
2023-04-25T01:07:35.430Z,65.00
2023-04-25T01:10:02.951Z,64.90
2023-04-25T01:12:29.962Z,64.70
2023-04-25T01:14:57.505Z,64.60
2023-04-25T01:17:25.205Z,64.60
2023-04-25T01:19:52.800Z,64.50
2023-04-25T01:22:20.181Z,64.40
2023-04-25T01:24:47.700Z,64.40
2023-04-25T01:27:14.861Z,64.40
2023-04-25T01:29:44.974Z,64.20
2023-04-25T01:32:15.532Z,64.00
2023-04-25T01:34:43.436Z,64.00
2023-04-25T01:37:12.572Z,64.10
2023-04-25T01:39:42.693Z,64.10
2023-04-25T01:42:10.041Z,63.90
2023-04-25T01:44:37.341Z,63.80
2023-04-25T01:47:05.549Z,63.80
2023-04-25T01:49:32.734Z,63.90
2023-04-25T01:52:00.055Z,64.00
2023-04-25T01:54:27.260Z,64.00
2023-04-25T01:56:54.467Z,63.80
2023-04-25T01:59:23.150Z,63.90
2023-04-25T02:01:50.715Z,64.00
2023-04-25T02:04:20.312Z,63.90
2023-04-25T02:06:47.804Z,63.90
2023-04-25T02:09:14.799Z,64.00
2023-04-25T02:11:46.250Z,64.00
2023-04-25T02:14:13.442Z,63.90
2023-04-25T02:16:41.005Z,64.00
2023-04-25T02:19:08.904Z,63.90
2023-04-25T02:21:37.142Z,63.90
2023-04-25T02:24:04.672Z,64.00
2023-04-25T02:26:32.416Z,63.90
2023-04-25T02:28:59.936Z,64.00
2023-04-25T02:31:27.573Z,64.10
2023-04-25T02:33:54.989Z,64.20
2023-04-25T02:36:22.168Z,64.30
2023-04-25T02:38:49.389Z,64.50
2023-04-25T02:41:16.858Z,64.50
2023-04-25T02:43:43.929Z,64.50
2023-04-25T02:46:11.172Z,64.70
2023-04-25T02:48:38.552Z,64.70
2023-04-25T02:51:05.807Z,65.00
2023-04-25T02:53:32.906Z,65.00
2023-04-25T02:56:00.891Z,65.00
2023-04-25T02:58:27.941Z,65.00
2023-04-25T03:00:56.156Z,65.00
2023-04-25T03:03:23.401Z,65.00
2023-04-25T03:05:51.674Z,64.90
2023-04-25T03:08:19.203Z,64.80
2023-04-25T03:10:46.660Z,65.10
2023-04-25T03:13:13.787Z,65.20
2023-04-25T03:15:40.906Z,65.50
2023-04-25T03:18:07.869Z,65.60
2023-04-25T03:20:35.117Z,65.60
2023-04-25T03:23:02.337Z,65.60
2023-04-25T03:25:29.422Z,65.50
2023-04-25T03:27:56.806Z,65.80
2023-04-25T03:30:23.872Z,65.90
2023-04-25T03:32:51.151Z,65.90
2023-04-25T03:35:18.915Z,65.90
2023-04-25T03:37:48.891Z,66.30
2023-04-25T03:40:16.180Z,66.20
2023-04-25T03:42:44.995Z,66.20
2023-04-25T03:45:12.420Z,66.20
2023-04-25T03:47:39.559Z,66.40
2023-04-25T03:50:08.100Z,66.80
2023-04-25T03:52:35.395Z,66.60
2023-04-25T03:55:02.857Z,66.90
2023-04-25T03:57:29.930Z,67.20
2023-04-25T03:59:57.218Z,67.40
2023-04-25T04:02:24.603Z,67.20
2023-04-25T04:04:52.088Z,67.30
2023-04-25T04:07:19.410Z,67.60
2023-04-25T04:09:46.690Z,67.70
2023-04-25T04:12:14.265Z,67.70
2023-04-25T04:14:44.551Z,67.80
2023-04-25T04:17:12.072Z,67.80
2023-04-25T04:19:39.248Z,67.70
2023-04-25T04:22:06.761Z,67.60
2023-04-25T04:24:34.086Z,67.50
2023-04-25T04:27:01.516Z,67.70
2023-04-25T04:29:28.651Z,67.70
2023-04-25T04:31:55.742Z,67.80
2023-04-25T04:34:23.386Z,67.70
2023-04-25T04:36:50.971Z,67.80
2023-04-25T04:39:18.255Z,67.80
2023-04-25T04:41:45.720Z,68.00
2023-04-25T04:44:13.700Z,68.10
2023-04-25T04:46:43.667Z,68.40
2023-04-25T04:49:11.100Z,68.60
2023-04-25T04:51:39.045Z,68.80
2023-04-25T04:54:06.553Z,68.90
2023-04-25T04:56:34.296Z,69.00
2023-04-25T04:59:01.490Z,69.10
2023-04-25T05:01:28.482Z,69.20
2023-04-25T05:03:56.537Z,69.30
2023-04-25T05:06:24.086Z,69.40
2023-04-25T05:08:52.412Z,69.40
2023-04-25T05:11:20.214Z,69.40
2023-04-25T05:13:47.336Z,69.40
2023-04-25T05:16:14.520Z,69.40
2023-04-25T05:18:45.510Z,69.40
2023-04-25T05:21:12.686Z,69.40
2023-04-25T05:23:39.964Z,69.20
2023-04-25T05:26:07.060Z,69.30
2023-04-25T05:28:34.252Z,69.10
2023-04-25T05:31:02.521Z,69.10
2023-04-25T05:33:29.601Z,69.20
2023-04-25T05:35:56.688Z,69.30
2023-04-25T05:38:24.376Z,69.30
2023-04-25T05:40:51.661Z,69.30
2023-04-25T05:43:18.696Z,69.30
2023-04-25T05:45:46.001Z,69.30
2023-04-25T05:48:13.247Z,69.30
2023-04-25T05:50:40.970Z,69.20
2023-04-25T05:53:08.143Z,69.20
2023-04-25T05:55:35.134Z,68.90
2023-04-25T05:58:02.396Z,68.60
2023-04-25T06:00:30.376Z,68.70
2023-04-25T06:02:57.649Z,68.70
2023-04-25T06:05:25.017Z,68.70
2023-04-25T06:07:52.135Z,68.50
2023-04-25T06:10:19.901Z,68.30
2023-04-25T06:12:46.909Z,68.20
2023-04-25T06:15:27.047Z,68.10
2023-04-25T06:17:55.510Z,68.00
2023-04-25T06:20:24.620Z,68.00
2023-04-25T06:22:53.153Z,68.10
2023-04-25T06:25:20.906Z,68.20
2023-04-25T06:27:48.252Z,68.20
2023-04-25T06:30:15.771Z,68.30
2023-04-25T06:32:43.146Z,68.30
2023-04-25T06:35:10.729Z,68.50
2023-04-25T06:37:37.795Z,68.70
2023-04-25T06:40:05.355Z,68.90
2023-04-25T06:42:32.623Z,68.90
2023-04-25T06:44:59.708Z,68.90
2023-04-25T06:47:27.019Z,68.70
2023-04-25T06:49:54.609Z,68.70
2023-04-25T06:52:21.762Z,68.70
2023-04-25T06:54:49.960Z,68.60
2023-04-25T06:57:18.735Z,68.50
2023-04-25T06:59:45.885Z,68.40
2023-04-25T07:02:13.493Z,68.30
2023-04-25T07:04:41.105Z,68.20
2023-04-25T07:07:08.530Z,68.20
2023-04-25T07:09:35.819Z,68.00
2023-04-25T07:12:02.885Z,67.80
2023-04-25T07:14:30.150Z,67.70
2023-04-25T07:16:58.737Z,67.70
2023-04-25T07:19:27.970Z,67.60
2023-04-25T07:21:55.072Z,67.40
2023-04-25T07:24:23.717Z,67.20
2023-04-25T07:26:51.390Z,67.20
2023-04-25T07:29:18.490Z,67.30
2023-04-25T07:31:45.674Z,67.30
2023-04-25T07:34:15.877Z,67.30
2023-04-25T07:36:48.632Z,67.00
2023-04-25T07:39:19.077Z,66.60
2023-04-25T07:41:46.394Z,66.30
2023-04-25T07:44:13.531Z,65.80
2023-04-25T07:46:40.841Z,65.60
2023-04-25T07:49:08.006Z,65.20
2023-04-25T07:51:35.208Z,64.90
2023-04-25T07:54:02.542Z,64.70
2023-04-25T07:56:38.522Z,64.60
2023-04-25T07:59:12.870Z,64.70
2023-04-25T08:01:39.879Z,64.80
2023-04-25T08:04:07.605Z,64.70
2023-04-25T08:06:38.277Z,64.60
2023-04-25T08:09:05.524Z,64.50
2023-04-25T08:11:32.784Z,64.40
2023-04-25T08:14:00.159Z,64.50
2023-04-25T08:16:27.310Z,64.60
2023-04-25T08:18:54.715Z,64.40
2023-04-25T08:21:22.205Z,64.00
2023-04-25T08:23:49.284Z,63.60
2023-04-25T08:26:16.574Z,63.40
2023-04-25T08:28:44.094Z,62.90
2023-04-25T08:31:12.646Z,63.00
2023-04-25T08:33:39.799Z,63.00
2023-04-25T08:36:07.496Z,63.30
2023-04-25T08:38:35.689Z,63.50
2023-04-25T08:41:02.853Z,63.60
2023-04-25T08:43:32.393Z,63.80
2023-04-25T08:46:01.408Z,63.70
2023-04-25T08:48:30.023Z,63.40
2023-04-25T08:50:57.922Z,63.00
2023-04-25T08:53:29.628Z,63.10
2023-04-25T08:55:58.182Z,62.90
2023-04-25T08:58:25.502Z,62.90
2023-04-25T09:00:53.113Z,62.40
2023-04-25T09:03:20.597Z,61.60
2023-04-25T09:05:48.012Z,61.40
2023-04-25T09:08:15.494Z,60.90
2023-04-25T09:10:43.110Z,60.70
2023-04-25T09:13:25.043Z,61.10
2023-04-25T09:15:53.572Z,61.10
2023-04-25T09:18:34.364Z,60.70
2023-04-25T09:21:13.070Z,60.40
2023-04-25T09:23:51.044Z,60.10
2023-04-25T09:26:21.686Z,60.30
2023-04-25T09:28:51.753Z,60.00
2023-04-25T09:31:26.142Z,59.30
2023-04-25T09:34:00.518Z,58.90
2023-04-25T09:36:28.679Z,58.90
2023-04-25T09:38:56.469Z,58.80
2023-04-25T09:41:25.644Z,59.00
2023-04-25T09:43:52.993Z,59.30
2023-04-25T09:46:22.904Z,59.40
2023-04-25T09:48:51.776Z,59.50
2023-04-25T09:51:19.783Z,60.30
2023-04-25T09:53:52.373Z,60.90
2023-04-25T09:56:21.247Z,61.30
2023-04-25T09:58:48.542Z,60.90
2023-04-25T10:01:20.330Z,60.00
2023-04-25T10:03:51.035Z,59.80
2023-04-25T10:06:47.881Z,59.30
2023-04-25T10:09:18.505Z,59.10
2023-04-25T10:11:54.644Z,57.60
2023-04-25T10:14:22.632Z,56.50
2023-04-25T10:16:50.244Z,55.90
2023-04-25T10:19:18.065Z,55.70
2023-04-25T10:21:49.725Z,55.50
2023-04-25T10:24:16.923Z,56.00
2023-04-25T10:26:44.233Z,55.80
2023-04-25T10:29:14.205Z,55.80
2023-04-25T10:31:48.634Z,56.60
2023-04-25T10:34:16.716Z,57.10
2023-04-25T10:36:44.034Z,56.80
2023-04-25T10:39:14.362Z,56.10
2023-04-25T10:41:48.750Z,55.10
2023-04-25T10:44:16.968Z,54.90
2023-04-25T10:46:48.134Z,53.70
2023-04-25T10:49:31.572Z,53.10
2023-04-25T10:52:13.698Z,51.40
2023-04-25T10:54:47.421Z,51.40
2023-04-25T10:57:33.884Z,49.80
2023-04-25T11:00:02.236Z,49.60
2023-04-25T11:02:30.707Z,49.30
2023-04-25T11:05:02.407Z,49.50
2023-04-25T11:08:07.243Z,49.80
2023-04-25T11:10:38.339Z,50.50
2023-04-25T11:13:06.166Z,51.10
2023-04-25T11:15:33.309Z,52.00
2023-04-25T11:18:01.063Z,52.70
2023-04-25T11:20:30.598Z,53.80
2023-04-25T11:25:35.600Z,55.40
2023-04-25T11:28:05.483Z,56.30
2023-04-25T11:30:32.492Z,57.50
2023-04-25T11:33:00.420Z,58.50
2023-04-25T11:35:29.147Z,59.40
2023-04-25T11:37:57.356Z,59.80
2023-04-25T11:40:24.868Z,60.40
2023-04-25T11:42:55.586Z,61.20
2023-04-25T11:45:24.708Z,61.80
2023-04-25T11:47:52.618Z,62.20
2023-04-25T11:50:19.861Z,62.70
2023-04-25T11:52:47.583Z,63.50
2023-04-25T11:55:15.720Z,64.00
2023-04-25T11:57:43.530Z,64.60
2023-04-25T12:00:12.788Z,65.10
2023-04-25T12:02:47.722Z,66.00
2023-04-25T12:05:31.135Z,66.50
2023-04-25T12:07:59.986Z,67.20
2023-04-25T12:10:27.391Z,67.70
2023-04-25T12:12:55.724Z,68.80
2023-04-25T12:15:26.423Z,69.40
2023-04-25T12:17:55.139Z,70.00
2023-04-25T12:20:24.972Z,70.20
2023-04-25T12:22:52.593Z,69.90
2023-04-25T12:25:39.546Z,69.30
2023-04-25T12:28:13.804Z,69.10
2023-04-25T12:30:59.834Z,68.50
2023-04-25T12:33:28.578Z,67.10
2023-04-25T12:35:55.940Z,66.50
2023-04-25T12:38:31.556Z,66.10
2023-04-25T12:41:00.090Z,65.00
2023-04-25T12:43:27.637Z,63.30
2023-04-25T12:45:55.863Z,63.10
2023-04-25T12:48:23.769Z,62.30
2023-04-25T12:50:51.957Z,62.10
2023-04-25T12:53:24.097Z,61.50
2023-04-25T12:55:52.347Z,60.70
2023-04-25T12:58:20.254Z,60.20
2023-04-25T13:00:47.714Z,59.60
2023-04-25T13:03:14.989Z,59.60
2023-04-25T13:05:42.580Z,58.90
2023-04-25T13:08:10.004Z,58.70
2023-04-25T13:10:38.176Z,58.20
2023-04-25T13:13:05.639Z,58.20
2023-04-25T13:15:35.309Z,57.50
2023-04-25T13:18:02.743Z,56.60
2023-04-25T13:20:29.857Z,55.90
2023-04-25T13:22:57.064Z,55.80
2023-04-25T13:25:24.151Z,56.00
2023-04-25T13:27:52.738Z,56.30
2023-04-25T13:30:19.955Z,56.90
2023-04-25T13:32:47.455Z,58.00
2023-04-25T13:35:15.104Z,59.50
2023-04-25T13:37:42.341Z,60.90
2023-04-25T13:40:11.349Z,62.00
2023-04-25T13:42:38.806Z,62.30
2023-04-25T13:45:06.615Z,62.40
2023-04-25T13:47:35.572Z,62.00
2023-04-25T13:50:04.774Z,61.90
2023-04-25T13:52:32.056Z,61.60
2023-04-25T13:54:59.797Z,60.90
2023-04-25T13:57:27.086Z,60.20
2023-04-25T13:59:55.379Z,59.70
2023-04-25T14:02:22.974Z,59.40
2023-04-25T14:04:50.207Z,59.50
2023-04-25T14:07:17.608Z,59.30
2023-04-25T14:09:44.870Z,59.20
2023-04-25T14:12:15.485Z,58.80
2023-04-25T14:14:42.532Z,59.00
2023-04-25T14:17:09.833Z,58.40
2023-04-25T14:19:39.036Z,58.50
2023-04-25T14:22:06.190Z,58.80
2023-04-25T14:24:33.479Z,58.90
2023-04-25T14:27:00.725Z,59.20
2023-04-25T14:29:27.949Z,59.20
2023-04-25T14:31:55.666Z,59.60
2023-04-25T14:34:22.721Z,60.10
2023-04-25T14:36:49.818Z,60.00
2023-04-25T14:39:20.604Z,60.00
2023-04-25T14:41:48.766Z,59.80
2023-04-25T14:44:16.804Z,59.80
2023-04-25T14:46:44.504Z,60.10
2023-04-25T14:49:14.632Z,60.30
2023-04-25T14:51:44.323Z,60.40
2023-04-25T14:54:12.400Z,60.40
2023-04-25T14:56:39.540Z,60.50
2023-04-25T14:59:07.107Z,60.80
2023-04-25T15:01:34.490Z,61.00
2023-04-25T15:04:01.827Z,60.70
2023-04-25T15:06:31.241Z,61.00
2023-04-25T15:08:59.279Z,61.00
2023-04-25T15:11:26.850Z,60.90
2023-04-25T15:13:54.119Z,60.40
2023-04-25T15:16:21.797Z,60.00
2023-04-25T15:18:49.051Z,60.10
2023-04-25T15:21:16.297Z,60.20
2023-04-25T15:23:43.555Z,60.20
2023-04-25T15:26:10.946Z,60.40
2023-04-25T15:28:38.200Z,60.70
2023-04-25T15:31:05.244Z,61.10
2023-04-25T15:33:33.424Z,61.30
2023-04-25T15:36:01.193Z,61.40
2023-04-25T15:38:28.394Z,61.70
2023-04-25T15:40:55.404Z,62.00
2023-04-25T15:43:23.344Z,62.30
2023-04-25T15:45:50.969Z,62.30
2023-04-25T15:48:18.488Z,62.30
2023-04-25T15:50:46.094Z,62.20
2023-04-25T15:53:13.668Z,62.40
2023-04-25T15:55:41.515Z,62.40
2023-04-25T15:58:10.726Z,62.50
2023-04-25T16:00:40.219Z,62.40
2023-04-25T16:03:08.106Z,62.50
2023-04-25T16:05:35.336Z,62.60
2023-04-25T16:08:02.625Z,62.30
2023-04-25T16:10:29.938Z,62.30
2023-04-25T16:12:58.842Z,61.90
2023-04-25T16:15:25.835Z,62.00
2023-04-25T16:17:53.257Z,62.20
2023-04-25T16:20:20.393Z,62.00
2023-04-25T16:22:47.968Z,62.10
2023-04-25T16:25:15.216Z,62.10
2023-04-25T16:27:42.366Z,62.00
2023-04-25T16:30:10.875Z,61.60
2023-04-25T16:32:38.354Z,61.70
2023-04-25T16:35:06.185Z,61.70
2023-04-25T16:37:33.434Z,61.20
2023-04-25T16:40:01.164Z,60.80
2023-04-25T16:42:28.796Z,61.00
2023-04-25T16:44:55.973Z,61.30
2023-04-25T16:47:23.532Z,62.10
2023-04-25T16:49:51.072Z,62.60
2023-04-25T16:52:18.579Z,63.50
2023-04-25T16:54:46.406Z,64.20
2023-04-25T16:57:14.677Z,64.90
2023-04-25T16:59:44.807Z,65.40
2023-04-25T17:02:13.326Z,65.90
2023-04-25T17:04:41.447Z,66.50
2023-04-25T17:07:09.075Z,67.00
2023-04-25T17:09:39.177Z,67.50
2023-04-25T17:12:06.506Z,67.60
2023-04-25T17:14:36.421Z,67.60
2023-04-25T17:17:04.593Z,68.00
2023-04-25T17:19:32.545Z,68.10
2023-04-25T17:21:59.773Z,68.10
2023-04-25T17:24:27.047Z,68.20
2023-04-25T17:26:56.105Z,68.30
2023-04-25T17:29:24.532Z,68.70
2023-04-25T17:31:53.200Z,68.80
2023-04-25T17:34:20.589Z,68.80
2023-04-25T17:36:48.968Z,68.80
2023-04-25T17:39:17.809Z,69.00
2023-04-25T17:41:45.289Z,69.40
2023-04-25T17:44:13.510Z,69.20
2023-04-25T17:46:43.786Z,69.40
2023-04-25T17:49:14.670Z,69.40
2023-04-25T17:51:44.792Z,69.70
2023-04-25T17:54:15.370Z,69.80
2023-04-25T17:56:44.220Z,69.60
2023-04-25T17:59:12.322Z,69.80
2023-04-25T18:01:42.162Z,69.90
2023-04-25T18:04:11.109Z,69.90
2023-04-25T18:06:38.351Z,69.80
2023-04-25T18:09:16.296Z,70.00
2023-04-25T18:11:45.159Z,70.40
2023-04-25T18:14:15.317Z,70.90
2023-04-25T18:16:42.836Z,70.70
2023-04-25T18:19:16.420Z,71.00
2023-04-25T18:21:44.014Z,71.10
2023-04-25T18:24:12.753Z,70.80
2023-04-25T18:26:40.693Z,71.20
2023-04-25T18:29:08.098Z,71.80
2023-04-25T18:31:35.973Z,72.00
2023-04-25T18:34:03.286Z,72.10
2023-04-25T18:36:31.630Z,72.30
2023-04-25T18:39:01.304Z,72.40
2023-04-25T18:41:54.272Z,72.80
2023-04-25T18:44:26.448Z,73.10
2023-04-25T18:46:54.493Z,73.10
2023-04-25T18:49:21.884Z,73.10
2023-04-25T18:51:50.056Z,73.30
2023-04-25T18:54:17.345Z,73.40
2023-04-25T18:56:44.749Z,73.50
2023-04-25T18:59:17.104Z,73.50
2023-04-25T19:01:44.351Z,73.60
2023-04-25T19:04:11.985Z,73.70
2023-04-25T19:06:39.151Z,73.60
2023-04-25T19:09:08.358Z,73.80
2023-04-25T19:11:35.862Z,74.00
2023-04-25T19:14:03.233Z,73.90
2023-04-25T19:16:30.328Z,74.00
2023-04-25T19:18:57.347Z,73.90
2023-04-25T19:21:25.790Z,74.00
2023-04-25T19:23:54.766Z,74.20
2023-04-25T19:26:22.916Z,74.20
2023-04-25T19:29:03.696Z,74.30
2023-04-25T19:31:31.043Z,74.50
2023-04-25T19:33:58.500Z,74.60
2023-04-25T19:36:25.775Z,74.40
2023-04-25T19:38:53.353Z,74.30
2023-04-25T19:41:21.192Z,74.30
2023-04-25T19:43:48.591Z,74.40
2023-04-25T19:46:15.765Z,74.80
2023-04-25T19:48:44.500Z,74.70
2023-04-25T19:51:12.177Z,74.70
2023-04-25T19:53:39.430Z,74.70
2023-04-25T19:56:06.790Z,74.70
2023-04-25T19:58:34.989Z,74.80
2023-04-25T20:01:03.223Z,74.90
2023-04-25T20:03:31.019Z,74.80
2023-04-25T20:05:58.693Z,74.60
2023-04-25T20:08:26.637Z,74.60
2023-04-25T20:10:53.851Z,74.70
2023-04-25T20:13:21.653Z,74.90
2023-04-25T20:15:49.203Z,74.90
2023-04-25T20:18:16.365Z,74.90
2023-04-25T20:20:43.851Z,74.80
2023-04-25T20:23:11.926Z,74.90
2023-04-25T20:25:39.525Z,75.00
2023-04-25T20:28:06.945Z,75.10
2023-04-25T20:30:34.306Z,75.10
2023-04-25T20:33:01.773Z,75.00
2023-04-25T20:35:28.995Z,75.00
2023-04-25T20:37:56.166Z,75.00
2023-04-25T20:40:23.191Z,74.80
2023-04-25T20:42:52.126Z,74.90
2023-04-25T20:45:19.126Z,75.00
2023-04-25T20:47:47.317Z,74.90
2023-04-25T20:50:14.800Z,74.90
2023-04-25T20:52:43.307Z,74.80
2023-04-25T20:55:12.371Z,74.70
2023-04-25T20:57:39.636Z,74.70
2023-04-25T21:00:17.289Z,74.50
2023-04-25T21:02:45.038Z,74.50
2023-04-25T21:05:14.701Z,74.50
2023-04-25T21:07:43.066Z,74.60
2023-04-25T21:10:11.449Z,74.60
2023-04-25T21:12:38.605Z,74.60
2023-04-25T21:15:06.229Z,74.50
2023-04-25T21:17:35.336Z,74.50
2023-04-25T21:20:12.974Z,74.50
2023-04-25T21:22:49.670Z,74.60
2023-04-25T21:25:24.886Z,74.60
2023-04-25T21:27:53.184Z,74.60
2023-04-25T21:30:23.627Z,74.60
2023-04-25T21:32:51.962Z,74.60
2023-04-25T21:35:20.380Z,74.60
2023-04-25T21:37:47.867Z,74.70
2023-04-25T21:40:15.596Z,74.50
2023-04-25T21:42:44.795Z,74.40
2023-04-25T21:45:12.891Z,74.40
2023-04-25T21:47:41.493Z,74.50
2023-04-25T21:50:09.262Z,74.60
2023-04-25T21:52:36.859Z,74.50
2023-04-25T21:55:04.208Z,74.40
2023-04-25T21:57:31.214Z,74.20
2023-04-25T21:59:59.493Z,74.30
2023-04-25T22:02:27.767Z,74.40
2023-04-25T22:04:55.182Z,74.40
2023-04-25T22:07:24.265Z,74.50
2023-04-25T22:09:54.912Z,74.50
2023-04-25T22:12:23.719Z,74.50
2023-04-25T22:14:51.179Z,74.60
2023-04-25T22:17:19.244Z,74.50
2023-04-25T22:19:50.135Z,74.40
2023-04-25T22:22:17.762Z,74.30
2023-04-25T22:24:45.361Z,74.30
2023-04-25T22:27:12.970Z,74.30
2023-04-25T22:29:42.486Z,74.30
2023-04-25T22:32:10.000Z,74.30
2023-04-25T22:34:37.416Z,74.50
2023-04-25T22:37:05.344Z,74.70
2023-04-25T22:39:32.885Z,74.80
2023-04-25T22:41:59.910Z,74.70
2023-04-25T22:44:27.373Z,74.60
2023-04-25T22:46:54.922Z,74.60
2023-04-25T22:49:21.982Z,74.70
2023-04-25T22:51:54.554Z,74.60
2023-04-25T22:54:22.175Z,74.70
2023-04-25T22:56:49.435Z,74.50
2023-04-25T22:59:16.658Z,74.30
2023-04-25T23:01:44.086Z,74.30
2023-04-25T23:04:11.910Z,74.40
2023-04-25T23:06:43.640Z,74.50
2023-04-25T23:09:12.851Z,74.60
2023-04-25T23:11:43.609Z,74.50
2023-04-25T23:14:13.731Z,74.50
2023-04-25T23:16:41.070Z,74.40
2023-04-25T23:19:08.421Z,74.40
2023-04-25T23:21:35.482Z,74.40
2023-04-25T23:24:02.612Z,74.30
2023-04-25T23:26:30.107Z,74.40
2023-04-25T23:28:57.592Z,74.30
2023-04-25T23:31:25.076Z,74.10
2023-04-25T23:33:53.001Z,74.10
2023-04-25T23:36:21.989Z,74.20
2023-04-25T23:38:53.224Z,74.10
2023-04-25T23:41:20.905Z,74.20
2023-04-25T23:43:48.412Z,74.20
2023-04-25T23:46:15.770Z,74.00
2023-04-25T23:48:43.096Z,73.90
2023-04-25T23:51:11.461Z,73.90
2023-04-25T23:53:38.661Z,73.70
2023-04-25T23:56:06.189Z,73.80
2023-04-25T23:58:33.373Z,74.10
